createdAt,value
2023-05-05T00:00:23.940Z,4044.00
2023-05-05T00:01:23.956Z,4054.00
2023-05-05T00:02:24.038Z,4029.00
2023-05-05T00:03:24.102Z,4050.00
2023-05-05T00:04:24.098Z,4060.00
2023-05-05T00:05:24.105Z,4030.00
2023-05-05T00:06:24.104Z,4015.00
2023-05-05T00:07:24.138Z,3954.00
2023-05-05T00:08:24.184Z,3969.00
2023-05-05T00:09:24.205Z,3982.00
2023-05-05T00:10:24.201Z,3983.00
2023-05-05T00:11:24.202Z,3989.00
2023-05-05T00:12:24.201Z,4006.00
2023-05-05T00:13:24.194Z,4023.00
2023-05-05T00:14:24.189Z,4046.00
2023-05-05T00:15:24.195Z,4019.00
2023-05-05T00:16:24.230Z,4021.00
2023-05-05T00:17:24.232Z,4038.00
2023-05-05T00:18:24.186Z,4058.00
2023-05-05T00:19:24.183Z,4067.00
2023-05-05T00:20:24.173Z,4042.00
2023-05-05T00:21:24.193Z,4043.00
2023-05-05T00:22:24.172Z,4026.00
2023-05-05T00:23:24.179Z,4054.00
2023-05-05T00:24:24.160Z,4076.00
2023-05-05T00:25:24.189Z,4058.00
2023-05-05T00:26:24.227Z,4067.00
2023-05-05T00:27:24.271Z,4056.00
2023-05-05T00:28:24.321Z,4049.00
2023-05-05T00:29:24.371Z,4019.00
2023-05-05T00:30:24.405Z,4030.00
2023-05-05T00:31:24.491Z,4022.00
2023-05-05T00:32:24.503Z,4065.00
2023-05-05T00:33:24.544Z,4067.00
2023-05-05T00:34:24.590Z,4071.00
2023-05-05T00:35:24.639Z,4034.00
2023-05-05T00:36:24.693Z,4015.00
2023-05-05T00:37:24.741Z,3976.00
2023-05-05T00:38:24.776Z,3968.00
2023-05-05T00:39:24.833Z,3946.00
2023-05-05T00:40:24.883Z,3967.00
2023-05-05T00:41:24.925Z,3955.00
2023-05-05T00:42:24.991Z,3944.00
2023-05-05T00:43:25.028Z,3941.00
2023-05-05T00:44:25.072Z,3952.00
2023-05-05T00:45:25.133Z,3937.00
2023-05-05T00:46:25.211Z,3954.00
2023-05-05T00:47:25.261Z,3947.00
2023-05-05T00:48:25.316Z,3929.00
2023-05-05T00:49:25.358Z,3948.00
2023-05-05T00:50:25.391Z,3944.00
2023-05-05T00:51:25.458Z,3936.00
2023-05-05T00:52:25.519Z,3962.00
2023-05-05T00:53:25.561Z,3962.00
2023-05-05T00:54:25.621Z,3963.00
2023-05-05T00:55:25.672Z,3941.00
2023-05-05T00:56:25.722Z,3932.00
2023-05-05T00:57:25.786Z,3964.00
2023-05-05T00:58:25.820Z,3981.00
2023-05-05T00:59:25.887Z,3973.00
2023-05-05T01:00:25.948Z,3943.00
2023-05-05T01:01:26.016Z,3929.00
2023-05-05T01:02:26.182Z,3963.00
2023-05-05T01:03:26.190Z,3950.00
2023-05-05T01:04:26.166Z,3926.00
2023-05-05T01:05:26.209Z,3911.00
2023-05-05T01:06:26.274Z,3877.00
2023-05-05T01:07:26.269Z,3877.00
2023-05-05T01:08:26.273Z,3879.00
2023-05-05T01:09:26.270Z,3880.00
2023-05-05T01:10:26.560Z,3878.00
2023-05-05T01:11:26.281Z,3879.00
2023-05-05T01:12:26.274Z,3884.00
2023-05-05T01:13:26.260Z,3890.00
2023-05-05T01:14:26.253Z,3896.00
2023-05-05T01:15:26.247Z,3873.00
2023-05-05T01:16:26.261Z,3859.00
2023-05-05T01:17:26.266Z,3883.00
2023-05-05T01:18:26.249Z,3839.00
2023-05-05T01:19:26.244Z,3843.00
2023-05-05T01:20:26.233Z,3870.00
2023-05-05T01:21:26.286Z,3854.00
2023-05-05T01:22:26.356Z,3885.00
2023-05-05T01:23:26.403Z,3869.00
2023-05-05T01:24:26.463Z,3840.00
2023-05-05T01:25:26.508Z,3806.00
2023-05-05T01:26:26.505Z,3806.00
2023-05-05T01:27:26.507Z,3809.00
2023-05-05T01:28:26.510Z,3812.00
2023-05-05T01:29:26.503Z,3810.00
2023-05-05T01:30:26.504Z,3787.00
2023-05-05T01:31:26.514Z,3788.00
2023-05-05T01:32:26.506Z,3789.00
2023-05-05T01:33:26.500Z,3804.00
2023-05-05T01:34:26.496Z,3837.00
2023-05-05T01:35:26.491Z,3847.00
2023-05-05T01:36:26.505Z,3797.00
2023-05-05T01:37:26.571Z,3822.00
2023-05-05T01:38:26.654Z,3782.00
2023-05-05T01:39:26.698Z,3748.00
2023-05-05T01:40:26.750Z,3762.00
2023-05-05T01:41:26.829Z,3752.00
2023-05-05T01:42:26.893Z,3733.00
2023-05-05T01:43:26.957Z,3706.00
2023-05-05T01:44:27.015Z,3691.00
2023-05-05T01:45:27.070Z,3659.00
2023-05-05T01:46:27.120Z,3692.00
2023-05-05T01:47:27.216Z,3683.00
2023-05-05T01:48:27.262Z,3731.00
2023-05-05T01:49:27.365Z,3677.00
2023-05-05T01:50:27.421Z,3647.00
2023-05-05T01:51:27.457Z,3639.00
2023-05-05T01:52:27.509Z,3641.00
2023-05-05T01:53:27.566Z,3620.00
2023-05-05T01:54:27.767Z,3637.00
2023-05-05T01:55:27.730Z,3642.00
2023-05-05T01:56:27.751Z,3640.00
2023-05-05T01:57:27.823Z,3620.00
2023-05-05T01:58:27.877Z,3624.00
2023-05-05T01:59:27.929Z,3640.00
2023-05-05T02:00:27.999Z,3648.00
2023-05-05T02:01:28.111Z,3620.00
2023-05-05T02:02:28.198Z,3624.00
2023-05-05T02:03:28.221Z,3585.00
2023-05-05T02:04:28.236Z,3595.00
2023-05-05T02:05:28.305Z,3585.00
2023-05-05T02:06:28.381Z,3559.00
2023-05-05T02:07:28.452Z,3551.00
2023-05-05T02:08:28.508Z,3524.00
2023-05-05T02:09:28.578Z,3583.00
2023-05-05T02:10:28.647Z,3584.00
2023-05-05T02:11:28.696Z,3627.00
2023-05-05T02:12:28.762Z,3625.00
2023-05-05T02:13:28.843Z,3607.00
2023-05-05T02:14:28.908Z,3609.00
2023-05-05T02:15:29.017Z,3568.00
2023-05-05T02:16:29.046Z,3536.00
2023-05-05T02:17:29.082Z,3538.00
2023-05-05T02:18:29.045Z,3534.00
2023-05-05T02:19:29.026Z,3518.00
2023-05-05T02:20:29.032Z,3495.00
2023-05-05T02:21:29.021Z,3498.00
2023-05-05T02:22:29.015Z,3518.00
2023-05-05T02:23:29.023Z,3503.00
2023-05-05T02:24:29.015Z,3445.00
2023-05-05T02:25:29.013Z,3401.00
2023-05-05T02:26:29.020Z,3349.00
2023-05-05T02:27:29.103Z,3336.00
2023-05-05T02:28:29.127Z,3302.00
2023-05-05T02:29:29.179Z,3278.00
2023-05-05T02:30:29.243Z,3262.00
2023-05-05T02:31:29.338Z,3253.00
2023-05-05T02:32:29.436Z,3239.00
2023-05-05T02:33:29.416Z,3247.00
2023-05-05T02:34:29.413Z,3238.00
2023-05-05T02:35:29.419Z,3211.00
2023-05-05T02:36:29.423Z,3183.00
2023-05-05T02:37:29.425Z,3166.00
2023-05-05T02:38:29.416Z,3136.00
2023-05-05T02:39:29.417Z,3128.00
2023-05-05T02:40:29.418Z,3135.00
2023-05-05T02:41:29.404Z,3151.00
2023-05-05T02:42:29.425Z,3126.00
2023-05-05T02:43:29.459Z,3105.00
2023-05-05T02:44:29.506Z,3071.00
2023-05-05T02:45:29.549Z,3037.00
2023-05-05T02:46:29.613Z,2986.00
2023-05-05T02:47:29.625Z,2913.00
2023-05-05T02:48:29.645Z,2883.00
2023-05-05T02:49:29.613Z,2854.00
2023-05-05T02:50:29.614Z,2835.00
2023-05-05T02:51:29.647Z,2827.00
2023-05-05T02:52:29.685Z,2815.00
2023-05-05T02:53:29.679Z,2799.00
2023-05-05T02:54:29.687Z,2815.00
2023-05-05T02:55:29.734Z,2810.00
2023-05-05T02:56:29.728Z,2808.00
2023-05-05T02:57:29.739Z,2810.00
2023-05-05T02:58:29.797Z,2798.00
2023-05-05T02:59:29.777Z,2793.00
2023-05-05T03:00:29.801Z,2749.00
2023-05-05T03:01:29.860Z,2610.00
2023-05-05T03:02:29.844Z,2480.00
2023-05-05T03:03:29.932Z,2323.00
2023-05-05T03:04:29.801Z,2185.00
2023-05-05T03:05:29.815Z,2079.00
2023-05-05T03:06:29.821Z,1992.00
2023-05-05T03:07:29.824Z,1899.00
2023-05-05T03:08:29.840Z,1799.00
2023-05-05T03:09:29.854Z,1716.00
2023-05-05T03:10:29.861Z,1627.00
2023-05-05T03:11:29.856Z,1553.00
2023-05-05T03:12:29.891Z,1452.00
2023-05-05T03:13:29.867Z,1393.00
2023-05-05T03:14:32.776Z,1332.00
2023-05-05T03:15:29.871Z,1269.00
2023-05-05T03:16:29.891Z,1216.00
2023-05-05T03:17:29.915Z,1173.00
2023-05-05T03:18:29.895Z,1127.00
2023-05-05T03:19:29.906Z,1096.00
2023-05-05T03:20:29.918Z,1054.00
2023-05-05T03:21:29.908Z,1006.00
2023-05-05T03:22:29.913Z,975.00
2023-05-05T03:23:29.939Z,959.00
2023-05-05T03:24:29.935Z,912.00
2023-05-05T03:25:29.940Z,893.00
2023-05-05T03:26:29.944Z,877.00
2023-05-05T03:27:29.949Z,858.00
2023-05-05T03:28:29.970Z,843.00
2023-05-05T03:29:29.975Z,822.00
2023-05-05T03:30:29.964Z,803.00
2023-05-05T03:31:29.997Z,780.00
2023-05-05T03:32:29.996Z,786.00
2023-05-05T03:33:29.996Z,768.00
2023-05-05T03:34:30.011Z,764.00
2023-05-05T03:35:30.027Z,758.00
2023-05-05T03:36:30.028Z,725.00
2023-05-05T03:37:30.060Z,698.00
2023-05-05T03:38:30.061Z,668.00
2023-05-05T03:39:30.067Z,664.00
2023-05-05T03:40:42.922Z,653.00
2023-05-05T03:41:31.097Z,649.00
2023-05-05T03:42:30.104Z,651.00
2023-05-05T03:43:30.104Z,650.00
2023-05-05T03:44:30.111Z,653.00
2023-05-05T03:45:30.165Z,653.00
2023-05-05T03:46:30.159Z,651.00
2023-05-05T03:47:30.165Z,645.00
2023-05-05T03:48:30.162Z,643.00
2023-05-05T03:49:30.164Z,647.00
2023-05-05T03:50:30.185Z,642.00
2023-05-05T03:51:30.194Z,641.00
2023-05-05T03:52:30.196Z,639.00
2023-05-05T03:53:30.224Z,632.00
2023-05-05T03:54:30.218Z,627.00
2023-05-05T03:55:30.234Z,619.00
2023-05-05T03:56:30.309Z,618.00
2023-05-05T03:57:30.393Z,614.00
2023-05-05T03:58:30.471Z,613.00
2023-05-05T03:59:30.540Z,612.00
2023-05-05T04:00:30.613Z,615.00
2023-05-05T04:01:30.687Z,641.00
2023-05-05T04:02:30.839Z,643.00
2023-05-05T04:03:30.994Z,652.00
2023-05-05T04:04:30.913Z,663.00
2023-05-05T04:05:30.966Z,701.00
2023-05-05T04:06:31.054Z,745.00
2023-05-05T04:07:31.105Z,777.00
2023-05-05T04:08:31.188Z,806.00
2023-05-05T04:09:31.259Z,812.00
2023-05-05T04:10:31.346Z,831.00
2023-05-05T04:11:31.404Z,825.00
2023-05-05T04:12:31.483Z,844.00
2023-05-05T04:13:31.566Z,879.00
2023-05-05T04:14:31.629Z,924.00
2023-05-05T04:15:31.633Z,925.00
2023-05-05T04:16:31.668Z,931.00
2023-05-05T04:17:31.680Z,948.00
2023-05-05T04:18:31.667Z,967.00
2023-05-05T04:19:31.668Z,993.00
2023-05-05T04:20:31.705Z,993.00
2023-05-05T04:21:31.706Z,984.00
2023-05-05T04:22:31.708Z,970.00
2023-05-05T04:23:31.715Z,952.00
2023-05-05T04:24:31.713Z,943.00
2023-05-05T04:25:31.746Z,949.00
2023-05-05T04:26:31.806Z,943.00
2023-05-05T04:27:31.864Z,934.00
2023-05-05T04:28:31.917Z,924.00
2023-05-05T04:29:31.970Z,929.00
2023-05-05T04:30:32.014Z,893.00
2023-05-05T04:31:32.096Z,867.00
2023-05-05T04:32:32.067Z,845.00
2023-05-05T04:33:32.030Z,815.00
2023-05-05T04:34:32.036Z,792.00
2023-05-05T04:35:32.049Z,800.00
2023-05-05T04:36:32.052Z,786.00
2023-05-05T04:37:32.078Z,778.00
2023-05-05T04:38:32.125Z,803.00
2023-05-05T04:39:32.089Z,810.00
2023-05-05T04:40:32.097Z,813.00
2023-05-05T04:41:32.111Z,814.00
2023-05-05T04:42:32.125Z,815.00
2023-05-05T04:43:32.125Z,823.00
2023-05-05T04:44:32.132Z,849.00
2023-05-05T04:45:32.132Z,876.00
2023-05-05T04:46:32.173Z,877.00
2023-05-05T04:47:32.222Z,894.00
2023-05-05T04:48:32.171Z,883.00
2023-05-05T04:49:32.162Z,882.00
2023-05-05T04:50:32.182Z,873.00
2023-05-05T04:51:32.201Z,858.00
2023-05-05T04:52:32.218Z,879.00
2023-05-05T04:53:32.218Z,870.00
2023-05-05T04:54:32.246Z,851.00
2023-05-05T04:55:32.234Z,850.00
2023-05-05T04:56:32.250Z,833.00
2023-05-05T04:57:32.258Z,828.00
2023-05-05T04:58:32.262Z,805.00
2023-05-05T04:59:32.280Z,789.00
2023-05-05T05:00:32.281Z,789.00
2023-05-05T05:01:32.317Z,790.00
2023-05-05T05:02:32.378Z,791.00
2023-05-05T05:03:32.439Z,783.00
2023-05-05T05:04:32.330Z,777.00
2023-05-05T05:05:32.329Z,775.00
2023-05-05T05:06:32.333Z,915.00
2023-05-05T05:07:32.368Z,955.00
2023-05-05T05:08:32.346Z,1033.00
2023-05-05T05:09:32.344Z,1156.00
2023-05-05T05:10:32.382Z,1230.00
2023-05-05T05:11:32.439Z,1324.00
2023-05-05T05:12:32.519Z,1417.00
2023-05-05T05:13:32.544Z,1480.00
2023-05-05T05:14:32.580Z,1534.00
2023-05-05T05:15:32.622Z,1579.00
2023-05-05T05:16:32.687Z,1626.00
2023-05-05T05:17:32.678Z,1662.00
2023-05-05T05:18:32.705Z,1705.00
2023-05-05T05:19:32.695Z,1751.00
2023-05-05T05:20:32.708Z,1753.00
2023-05-05T05:21:32.710Z,1764.00
2023-05-05T05:22:32.714Z,1791.00
2023-05-05T05:23:32.731Z,1842.00
2023-05-05T05:24:32.724Z,1910.00
2023-05-05T05:25:32.727Z,1961.00
2023-05-05T05:26:32.741Z,1969.00
2023-05-05T05:27:32.761Z,1971.00
2023-05-05T05:28:32.766Z,1982.00
2023-05-05T05:29:32.761Z,1999.00
2023-05-05T05:30:32.749Z,2049.00
2023-05-05T05:31:32.801Z,2186.00
2023-05-05T05:32:32.816Z,1980.00
2023-05-05T05:33:32.749Z,2037.00
2023-05-05T05:34:32.759Z,2159.00
2023-05-05T05:35:32.753Z,2334.00
2023-05-05T05:36:32.767Z,2532.00
2023-05-05T05:37:32.782Z,1988.00
2023-05-05T05:38:32.762Z,2048.00
2023-05-05T05:39:32.762Z,2207.00
2023-05-05T05:40:32.907Z,2497.00
2023-05-05T05:41:32.799Z,2929.00
2023-05-05T05:42:32.796Z,3085.00
2023-05-05T05:43:32.772Z,3124.00
2023-05-05T05:44:32.797Z,3155.00
2023-05-05T05:45:32.771Z,3066.00
2023-05-05T05:46:32.812Z,2885.00
2023-05-05T05:47:32.822Z,2835.00
2023-05-05T05:48:32.812Z,2597.00
2023-05-05T05:49:32.834Z,2471.00
2023-05-05T05:50:32.817Z,2376.00
2023-05-05T05:51:32.825Z,2319.00
2023-05-05T05:52:32.835Z,2241.00
2023-05-05T05:53:32.849Z,2214.00
2023-05-05T05:54:32.892Z,2319.00
2023-05-05T05:55:32.882Z,2451.00
2023-05-05T05:56:33.005Z,2474.00
2023-05-05T05:57:32.886Z,2356.00
2023-05-05T05:58:32.852Z,2364.00
2023-05-05T05:59:32.881Z,2407.00
2023-05-05T06:00:32.869Z,2477.00
2023-05-05T06:01:32.859Z,2627.00
2023-05-05T06:02:32.957Z,2841.00
2023-05-05T06:03:32.913Z,2962.00
2023-05-05T06:04:32.923Z,2990.00
2023-05-05T06:05:32.873Z,3039.00
2023-05-05T06:06:32.889Z,3046.00
2023-05-05T06:07:32.849Z,3155.00
2023-05-05T06:08:32.843Z,3237.00
2023-05-05T06:09:32.834Z,3359.00
2023-05-05T06:10:33.227Z,3474.00
2023-05-05T06:11:32.832Z,3476.00
2023-05-05T06:12:32.888Z,3483.00
2023-05-05T06:13:32.885Z,3440.00
2023-05-05T06:14:32.837Z,3513.00
2023-05-05T06:15:32.836Z,3615.00
2023-05-05T06:16:32.986Z,3664.00
2023-05-05T06:17:32.818Z,3720.00
2023-05-05T06:18:32.822Z,3721.00
2023-05-05T06:19:32.793Z,3223.00
2023-05-05T06:20:32.801Z,3113.00
2023-05-05T06:21:32.819Z,3028.00
2023-05-05T06:22:32.831Z,2832.00
2023-05-05T06:23:32.820Z,2763.00
2023-05-05T06:24:32.805Z,2719.00
2023-05-05T06:25:32.794Z,2539.00
2023-05-05T06:26:32.799Z,2417.00
2023-05-05T06:27:32.809Z,2388.00
2023-05-05T06:28:32.807Z,2399.00
2023-05-05T06:29:32.799Z,2311.00
2023-05-05T06:30:32.852Z,2417.00
2023-05-05T06:31:32.852Z,2272.00
2023-05-05T06:32:32.845Z,2191.00
2023-05-05T06:33:32.845Z,2148.00
2023-05-05T06:34:32.810Z,2039.00
2023-05-05T06:35:32.806Z,1899.00
2023-05-05T06:36:32.889Z,1855.00
2023-05-05T06:37:32.814Z,1912.00
2023-05-05T06:38:32.845Z,1845.00
2023-05-05T06:39:32.841Z,2101.00
2023-05-05T06:40:32.869Z,2103.00
2023-05-05T06:41:32.846Z,2135.00
2023-05-05T06:42:32.853Z,2031.00
2023-05-05T06:43:32.873Z,1867.00
2023-05-05T06:44:32.848Z,1881.00
2023-05-05T06:45:32.859Z,2048.00
2023-05-05T06:46:32.863Z,1860.00
2023-05-05T06:47:32.907Z,1833.00
2023-05-05T06:48:32.901Z,1790.00
2023-05-05T06:49:32.870Z,1869.00
2023-05-05T06:50:32.881Z,1786.00
2023-05-05T06:51:32.902Z,1792.00
2023-05-05T06:52:32.868Z,1869.00
2023-05-05T06:53:32.910Z,1692.00
2023-05-05T06:54:32.890Z,1480.00
2023-05-05T06:55:33.043Z,1410.00
2023-05-05T06:56:32.909Z,1278.00
2023-05-05T06:57:32.916Z,1175.00
2023-05-05T06:58:32.934Z,955.00
2023-05-05T06:59:32.935Z,971.00
2023-05-05T07:00:33.001Z,966.00
2023-05-05T07:01:32.954Z,855.00
2023-05-05T07:02:32.977Z,831.00
2023-05-05T07:03:33.010Z,789.00
2023-05-05T07:04:32.979Z,780.00
2023-05-05T07:05:32.992Z,754.00
2023-05-05T07:06:33.015Z,662.00
2023-05-05T07:07:33.012Z,691.00
2023-05-05T07:08:33.015Z,795.00
2023-05-05T07:09:33.025Z,837.00
2023-05-05T07:10:33.041Z,882.00
2023-05-05T07:11:33.180Z,883.00
2023-05-05T07:12:33.095Z,894.00
2023-05-05T07:13:33.078Z,889.00
2023-05-05T07:14:33.079Z,889.00
2023-05-05T07:15:33.100Z,910.00
2023-05-05T07:16:33.222Z,765.00
2023-05-05T07:17:33.130Z,665.00
2023-05-05T07:18:33.223Z,639.00
2023-05-05T07:19:33.131Z,633.00
2023-05-05T07:20:33.148Z,650.00
2023-05-05T07:21:33.132Z,716.00
2023-05-05T07:22:33.138Z,720.00
2023-05-05T07:23:33.177Z,717.00
2023-05-05T07:24:33.175Z,739.00
2023-05-05T07:25:33.155Z,761.00
2023-05-05T07:26:33.184Z,721.00
2023-05-05T07:27:33.268Z,658.00
2023-05-05T07:28:33.192Z,657.00
2023-05-05T07:29:33.198Z,624.00
2023-05-05T07:30:33.209Z,627.00
2023-05-05T07:31:33.228Z,660.00
2023-05-05T07:32:33.215Z,636.00
2023-05-05T07:33:33.202Z,632.00
2023-05-05T07:34:33.220Z,626.00
2023-05-05T07:35:33.220Z,574.00
2023-05-05T07:36:33.226Z,559.00
2023-05-05T07:37:33.222Z,569.00
2023-05-05T07:38:33.230Z,543.00
2023-05-05T07:39:33.244Z,512.00
2023-05-05T07:40:33.245Z,606.00
2023-05-05T07:41:33.243Z,651.00
2023-05-05T07:42:33.273Z,659.00
2023-05-05T07:43:33.317Z,557.00
2023-05-05T07:44:33.304Z,487.00
2023-05-05T07:45:33.369Z,468.00
2023-05-05T07:46:33.528Z,510.00
2023-05-05T07:47:33.612Z,460.00
2023-05-05T07:48:40.479Z,487.00
2023-05-05T07:49:33.592Z,481.00
2023-05-05T07:50:33.604Z,494.00
2023-05-05T07:51:34.589Z,447.00
2023-05-05T07:52:44.969Z,414.00
2023-05-05T07:53:34.562Z,400.00
2023-05-05T07:54:33.687Z,400.00
2023-05-05T07:55:33.558Z,400.00
2023-05-05T07:56:33.567Z,400.00
2023-05-05T07:57:33.639Z,403.00
2023-05-05T07:58:33.579Z,461.00
2023-05-05T07:59:33.692Z,417.00
2023-05-05T08:00:33.580Z,417.00
2023-05-05T08:01:33.605Z,415.00
2023-05-05T08:02:33.679Z,428.00
2023-05-05T08:03:33.876Z,412.00
2023-05-05T08:04:33.675Z,420.00
2023-05-05T08:05:33.622Z,400.00
2023-05-05T08:06:33.576Z,400.00
2023-05-05T08:07:33.603Z,400.00
2023-05-05T08:08:33.601Z,400.00
2023-05-05T08:09:33.592Z,400.00
2023-05-05T08:10:33.654Z,400.00
2023-05-05T08:11:33.620Z,503.00
2023-05-05T08:12:33.747Z,521.00
2023-05-05T08:13:33.680Z,538.00
2023-05-05T08:14:33.608Z,481.00
2023-05-05T08:15:33.672Z,494.00
2023-05-05T08:16:33.790Z,432.00
2023-05-05T08:17:33.752Z,426.00
2023-05-05T08:18:33.624Z,430.00
2023-05-05T08:19:33.599Z,420.00
2023-05-05T08:20:33.655Z,412.00
2023-05-05T08:21:33.601Z,403.00
2023-05-05T08:22:33.688Z,411.00
2023-05-05T08:23:33.632Z,498.00
2023-05-05T08:24:33.649Z,571.00
2023-05-05T08:25:33.637Z,666.00
2023-05-05T08:26:33.643Z,813.00
2023-05-05T08:27:33.650Z,812.00
2023-05-05T08:28:33.658Z,890.00
2023-05-05T08:29:33.667Z,930.00
2023-05-05T08:30:33.689Z,1062.00
2023-05-05T08:31:33.779Z,1086.00
2023-05-05T08:32:33.761Z,1025.00
2023-05-05T08:33:33.683Z,1327.00
2023-05-05T08:34:33.690Z,1667.00
2023-05-05T08:35:33.713Z,1876.00
2023-05-05T08:36:33.756Z,1238.00
2023-05-05T08:37:33.772Z,1043.00
2023-05-05T08:38:33.805Z,1046.00
2023-05-05T08:39:33.873Z,1255.00
2023-05-05T08:40:33.959Z,1339.00
2023-05-05T08:41:34.034Z,1090.00
2023-05-05T08:42:38.600Z,948.00
2023-05-05T08:43:34.026Z,957.00
2023-05-05T08:44:34.060Z,1020.00
2023-05-05T08:45:34.015Z,1196.00
2023-05-05T08:46:34.105Z,966.00
2023-05-05T08:47:34.167Z,1004.00
2023-05-05T08:48:33.992Z,1070.00
2023-05-05T08:49:34.034Z,1140.00
2023-05-05T08:50:33.983Z,1053.00
2023-05-05T08:51:34.039Z,870.00
2023-05-05T08:52:34.054Z,768.00
2023-05-05T08:53:33.963Z,611.00
2023-05-05T08:54:33.996Z,532.00
2023-05-05T08:55:33.984Z,590.00
2023-05-05T08:56:34.005Z,621.00
2023-05-05T08:57:33.994Z,538.00
2023-05-05T08:58:33.961Z,464.00
2023-05-05T08:59:33.990Z,496.00
2023-05-05T09:00:34.011Z,575.00
2023-05-05T09:01:34.127Z,467.00
2023-05-05T09:02:34.102Z,446.00
2023-05-05T09:03:34.101Z,471.00
2023-05-05T09:04:34.007Z,485.00
2023-05-05T09:05:33.896Z,504.00
2023-05-05T09:06:33.971Z,556.00
2023-05-05T09:07:33.886Z,516.00
2023-05-05T09:08:33.905Z,513.00
2023-05-05T09:09:34.133Z,506.00
2023-05-05T09:10:34.120Z,500.00
2023-05-05T09:11:34.264Z,514.00
2023-05-05T09:12:34.180Z,487.00
2023-05-05T09:13:34.207Z,508.00
2023-05-05T09:14:34.266Z,634.00
2023-05-05T09:15:34.300Z,641.00
2023-05-05T09:16:34.360Z,648.00
2023-05-05T09:17:34.395Z,614.00
2023-05-05T09:18:34.411Z,501.00
2023-05-05T09:19:34.607Z,497.00
2023-05-05T09:20:34.532Z,500.00
2023-05-05T09:21:34.590Z,524.00
2023-05-05T09:22:34.662Z,546.00
2023-05-05T09:23:34.726Z,524.00
2023-05-05T09:24:34.806Z,547.00
2023-05-05T09:25:34.888Z,636.00
2023-05-05T09:26:34.938Z,620.00
2023-05-05T09:27:35.011Z,559.00
2023-05-05T09:28:35.077Z,564.00
2023-05-05T09:29:35.127Z,601.00
2023-05-05T09:30:35.111Z,587.00
2023-05-05T09:31:35.113Z,531.00
2023-05-05T09:32:35.120Z,508.00
2023-05-05T09:33:35.120Z,656.00
2023-05-05T09:34:35.168Z,805.00
2023-05-05T09:35:35.182Z,849.00
2023-05-05T09:36:35.130Z,661.00
2023-05-05T09:37:35.149Z,638.00
2023-05-05T09:38:35.147Z,556.00
2023-05-05T09:39:35.128Z,488.00
2023-05-05T09:40:35.130Z,490.00
2023-05-05T09:41:35.133Z,490.00
2023-05-05T09:42:35.141Z,496.00
2023-05-05T09:43:35.190Z,540.00
2023-05-05T09:44:35.132Z,617.00
2023-05-05T09:45:35.149Z,601.00
2023-05-05T09:46:35.134Z,717.00
2023-05-05T09:47:35.302Z,820.00
2023-05-05T09:49:35.127Z,915.00
2023-05-05T09:50:35.121Z,1044.00
2023-05-05T09:51:35.220Z,1084.00
2023-05-05T09:52:35.118Z,1164.00
2023-05-05T09:53:35.125Z,1362.00
2023-05-05T09:54:35.151Z,1622.00
2023-05-05T09:55:35.158Z,1708.00
2023-05-05T09:56:35.161Z,1737.00
2023-05-05T09:57:35.158Z,2000.00
2023-05-05T09:58:35.192Z,2493.00
2023-05-05T09:59:35.195Z,2903.00
2023-05-05T10:00:35.210Z,3299.00
2023-05-05T10:01:35.359Z,3611.00
2023-05-05T10:02:35.388Z,3870.00
2023-05-05T10:03:35.338Z,3879.00
2023-05-05T10:04:35.360Z,3928.00
2023-05-05T10:05:35.331Z,3890.00
2023-05-05T10:06:35.377Z,3979.00
2023-05-05T10:07:35.322Z,4173.00
2023-05-05T10:08:35.315Z,4513.00
2023-05-05T10:09:35.338Z,5006.00
2023-05-05T10:10:35.314Z,5153.00
2023-05-05T10:11:35.318Z,5211.00
2023-05-05T10:12:35.308Z,5323.00
2023-05-05T10:13:35.289Z,5423.00
2023-05-05T10:14:35.254Z,5426.00
2023-05-05T10:15:35.281Z,5445.00
2023-05-05T10:16:35.286Z,5467.00
2023-05-05T10:17:35.240Z,5528.00
2023-05-05T10:18:35.263Z,5634.00
2023-05-05T10:19:35.201Z,5650.00
2023-05-05T10:20:35.164Z,5665.00
2023-05-05T10:21:35.161Z,5678.00
2023-05-05T10:22:35.161Z,5680.00
2023-05-05T10:23:35.197Z,5593.00
2023-05-05T10:24:35.134Z,5410.00
2023-05-05T10:25:35.139Z,5324.00
2023-05-05T10:26:35.124Z,5230.00
2023-05-05T10:27:35.104Z,5176.00
2023-05-05T10:28:35.118Z,5160.00
2023-05-05T10:29:35.106Z,5343.00
2023-05-05T10:30:35.099Z,4496.00
2023-05-05T10:31:35.112Z,4002.00
2023-05-05T10:33:36.117Z,3737.00
2023-05-05T10:34:35.135Z,3810.00
2023-05-05T10:35:35.054Z,3864.00
2023-05-05T10:36:35.062Z,3216.00
2023-05-05T10:37:35.026Z,3122.00
2023-05-05T10:38:35.049Z,3530.00
2023-05-05T10:39:35.099Z,3931.00
2023-05-05T10:40:35.101Z,4321.00
2023-05-05T10:41:35.099Z,4540.00
2023-05-05T10:42:35.135Z,4776.00
2023-05-05T10:43:35.133Z,4976.00
2023-05-05T10:44:35.137Z,5100.00
2023-05-05T10:45:35.340Z,5091.00
2023-05-05T10:46:35.386Z,4966.00
2023-05-05T10:47:35.220Z,4936.00
2023-05-05T10:48:35.254Z,4073.00
2023-05-05T10:49:35.250Z,3875.00
2023-05-05T10:50:35.232Z,3039.00
2023-05-05T10:51:40.093Z,3058.00
2023-05-05T10:52:36.255Z,3072.00
2023-05-05T10:53:35.366Z,3112.00
2023-05-05T10:54:37.156Z,2841.00
2023-05-05T10:55:35.391Z,2522.00
2023-05-05T10:56:35.250Z,2468.00
2023-05-05T10:57:35.257Z,2521.00
2023-05-05T10:58:47.122Z,2672.00
2023-05-05T10:59:36.196Z,2676.00
2023-05-05T11:00:35.163Z,2737.00
2023-05-05T11:01:35.328Z,2967.00
2023-05-05T11:02:35.210Z,3336.00
2023-05-05T11:03:35.138Z,3343.00
2023-05-05T11:04:35.086Z,3052.00
2023-05-05T11:05:35.073Z,3000.00
2023-05-05T11:06:35.055Z,3227.00
2023-05-05T11:07:35.051Z,3306.00
2023-05-05T11:08:35.025Z,2942.00
2023-05-05T11:09:35.017Z,2876.00
2023-05-05T11:10:35.006Z,2950.00
2023-05-05T11:11:35.099Z,2985.00
2023-05-05T11:12:36.114Z,3093.00
2023-05-05T11:13:34.956Z,2949.00
2023-05-05T11:14:34.932Z,2951.00
2023-05-05T11:15:34.932Z,2957.00
2023-05-05T11:16:34.977Z,2978.00
2023-05-05T11:17:34.909Z,2995.00
2023-05-05T11:18:34.865Z,2833.00
2023-05-05T11:19:34.872Z,2426.00
2023-05-05T11:20:34.834Z,2214.00
2023-05-05T11:21:34.819Z,2025.00
2023-05-05T11:22:34.797Z,1912.00
2023-05-05T11:23:34.776Z,1843.00
2023-05-05T11:24:34.763Z,1680.00
2023-05-05T11:25:34.803Z,1517.00
2023-05-05T11:26:34.703Z,1507.00
2023-05-05T11:27:34.762Z,1486.00
2023-05-05T11:28:34.676Z,1404.00
2023-05-05T11:29:34.677Z,1257.00
2023-05-05T11:30:34.646Z,1183.00
2023-05-05T11:31:34.758Z,1143.00
2023-05-05T11:32:34.681Z,1109.00
2023-05-05T11:33:34.609Z,1033.00
2023-05-05T11:34:34.598Z,1005.00
2023-05-05T11:35:34.577Z,996.00
2023-05-05T11:36:34.558Z,997.00
2023-05-05T11:37:34.559Z,1016.00
2023-05-05T11:38:34.547Z,1071.00
2023-05-05T11:39:34.516Z,1147.00
2023-05-05T11:40:34.492Z,1004.00
2023-05-05T11:41:34.462Z,1043.00
2023-05-05T11:42:34.464Z,1111.00
2023-05-05T11:43:34.513Z,1253.00
2023-05-05T11:44:34.421Z,1553.00
2023-05-05T11:45:34.423Z,1623.00
2023-05-05T11:46:34.403Z,1610.00
2023-05-05T11:47:34.427Z,1611.00
2023-05-05T11:48:34.434Z,1567.00
2023-05-05T11:49:34.469Z,1476.00
2023-05-05T11:50:34.539Z,1472.00
2023-05-05T11:51:34.537Z,1335.00
2023-05-05T11:52:34.597Z,1306.00
2023-05-05T11:53:34.579Z,1271.00
2023-05-05T11:54:34.540Z,1314.00
2023-05-05T11:55:34.553Z,1350.00
2023-05-05T11:56:34.505Z,1428.00
2023-05-05T11:57:34.486Z,1594.00
2023-05-05T11:58:34.479Z,1686.00
2023-05-05T11:59:34.521Z,1730.00
2023-05-05T12:00:34.467Z,1821.00
2023-05-05T12:01:34.465Z,1941.00
2023-05-05T12:02:34.505Z,1945.00
2023-05-05T12:03:34.533Z,1966.00
2023-05-05T12:04:34.478Z,2017.00
2023-05-05T12:05:36.729Z,2069.00
2023-05-05T12:06:34.406Z,2073.00
2023-05-05T12:07:34.414Z,2163.00
2023-05-05T12:08:34.375Z,2274.00
2023-05-05T12:09:34.370Z,2335.00
2023-05-05T12:10:34.347Z,2273.00
2023-05-05T12:11:34.325Z,2206.00
2023-05-05T12:12:34.341Z,2391.00
2023-05-05T12:13:34.278Z,2376.00
2023-05-05T12:14:34.322Z,2392.00
2023-05-05T12:15:34.324Z,2348.00